Time,TemperatureF,DewpointF,PressureIn,WindDirection,WindDirectionDegrees,WindSpeedMPH,WindSpeedGustMPH,Humidity,HourlyPrecipIn,Conditions,Clouds,dailyrainin,SoftwareType,DateUTC
2013-05-24 00:06:00,42.6,35.2,30.24,North,3,8.0,12.0,75,0.00,FEW,OVC,0.00,WeatherDisplay:10.37,2013-05-24 04:06:00,
2013-05-24 00:11:00,42.6,35.2,30.24,North,3,7.0,10.0,75,0.00,FEW,OVC,0.00,WeatherDisplay:10.37,2013-05-24 04:11:00,
2013-05-24 00:16:00,42.5,35.1,30.24,North,359,8.0,13.0,75,0.00,FEW,OVC,0.00,WeatherDisplay:10.37,2013-05-24 04:16:00,
2013-05-24 00:21:00,42.4,35.0,30.25,North,1,5.0,9.0,75,0.00,FEW,OVC,0.00,WeatherDisplay:10.37,2013-05-24 04:21:00,
2013-05-24 00:26:00,42.2,35.2,30.25,North,357,3.0,7.0,76,0.00,FEW,OVC,0.00,WeatherDisplay:10.37,2013-05-24 04:26:00,
2013-05-24 00:31:00,41.9,35.2,30.25,NNW,348,5.0,6.0,77,0.00,FEW,OVC,0.00,WeatherDisplay:10.37,2013-05-24 04:31:00,
2013-05-24 00:36:00,41.8,35.4,30.25,NNW,344,5.0,8.0,78,0.00,FEW,OVC,0.00,WeatherDisplay:10.37,2013-05-24 04:36:00,
2013-05-24 00:41:00,41.6,35.3,30.25,NNW,344,6.0,10.0,78,0.00,FEW,OVC,0.00,WeatherDisplay:10.37,2013-05-24 04:41:00,
2013-05-24 00:46:00,41.5,35.2,30.25,North,351,6.0,8.0,78,0.00,FEW,OVC,0.00,WeatherDisplay:10.37,2013-05-24 04:46:00,
2013-05-24 00:51:00,41.3,35.3,30.25,North,353,6.0,8.0,79,0.00,FEW,OVC,0.00,WeatherDisplay:10.37,2013-05-24 04:51:00,
2013-05-24 00:56:00,41.2,35.2,30.25,North,1,3.0,7.0,79,0.00,FEW,OVC,0.00,WeatherDisplay:10.37,2013-05-24 04:56:00,
2013-05-24 01:01:00,41.1,34.8,30.25,North,3,5.0,7.0,78,0.00,CLR,OVC,0.00,WeatherDisplay:10.37,2013-05-24 05:01:00,
2013-05-24 01:06:00,41.0,35.0,30.25,North,357,6.0,8.0,79,0.00,CLR,OVC,0.00,WeatherDisplay:10.37,2013-05-24 05:06:00,
2013-05-24 01:11:00,40.9,34.9,30.25,North,349,3.0,7.0,79,0.00,CLR,OVC,0.00,WeatherDisplay:10.37,2013-05-24 05:11:00,
2013-05-24 01:16:00,40.8,34.8,30.25,North,352,2.0,5.0,79,0.00,CLR,OVC,0.00,WeatherDisplay:10.37,2013-05-24 05:16:00,
2013-05-24 01:21:00,40.7,35.0,30.25,North,354,3.0,6.0,80,0.00,CLR,OVC,0.00,WeatherDisplay:10.37,2013-05-24 05:21:00,
2013-05-24 01:26:00,40.6,34.9,30.25,North,350,5.0,7.0,80,0.00,CLR,OVC,0.00,WeatherDisplay:10.37,2013-05-24 05:26:00,
2013-05-24 01:31:00,40.5,34.8,30.25,NNW,348,5.0,10.0,80,0.00,CLR,OVC,0.00,WeatherDisplay:10.37,2013-05-24 05:31:00,
2013-05-24 01:36:00,40.4,34.7,30.26,North,351,5.0,7.0,80,0.00,CLR,OVC,0.00,WeatherDisplay:10.37,2013-05-24 05:36:00,
2013-05-24 01:41:00,40.4,34.7,30.26,North,349,5.0,9.0,80,0.00,CLR,OVC,0.00,WeatherDisplay:10.37,2013-05-24 05:41:00,
2013-05-24 01:46:00,40.3,34.6,30.26,NNW,348,5.0,6.0,80,0.00,CLR,OVC,0.00,WeatherDisplay:10.37,2013-05-24 05:46:00,
2013-05-24 01:51:00,40.2,34.5,30.26,NNW,338,2.0,4.0,80,0.00,CLR,OVC,0.00,WeatherDisplay:10.37,2013-05-24 05:51:00,
2013-05-24 01:56:00,40.1,34.4,30.26,NW,324,5.0,7.0,80,0.00,CLR,OVC,0.00,WeatherDisplay:10.37,2013-05-24 05:56:00,
2013-05-24 02:01:00,40.0,34.3,30.26,NNW,347,3.0,5.0,80,0.00,CLR,OVC,0.00,WeatherDisplay:10.37,2013-05-24 06:01:00,
2013-05-24 02:06:00,39.9,34.2,30.26,NNW,348,6.0,7.0,80,0.00,CLR,OVC,0.00,WeatherDisplay:10.37,2013-05-24 06:06:00,
2013-05-24 02:11:00,39.8,34.5,30.26,NNW,339,3.0,5.0,81,0.00,CLR,OVC,0.00,WeatherDisplay:10.37,2013-05-24 06:11:00,
2013-05-24 02:16:00,39.7,34.3,30.26,NNW,343,3.0,5.0,81,0.00,CLR,OVC,0.00,WeatherDisplay:10.37,2013-05-24 06:16:00,
2013-05-24 02:21:00,39.6,34.2,30.27,NNW,338,2.0,4.0,81,0.00,CLR,OVC,0.00,WeatherDisplay:10.37,2013-05-24 06:21:00,
2013-05-24 02:26:00,39.5,34.5,30.27,NNW,330,3.0,5.0,82,0.00,CLR,OVC,0.00,WeatherDisplay:10.37,2013-05-24 06:26:00,
2013-05-24 02:31:00,39.3,34.3,30.27,NNW,330,5.0,6.0,82,0.00,CLR,OVC,0.00,WeatherDisplay:10.37,2013-05-24 06:31:00,
2013-05-24 02:36:00,39.2,34.5,30.27,NNW,331,3.0,7.0,83,0.00,CLR,OVC,0.00,WeatherDisplay:10.37,2013-05-24 06:36:00,
2013-05-24 02:41:00,39.1,34.4,30.27,NNW,330,5.0,6.0,83,0.00,CLR,OVC,0.00,WeatherDisplay:10.37,2013-05-24 06:41:00,
2013-05-24 02:46:00,39.1,34.4,30.27,NNW,337,3.0,7.0,83,0.00,CLR,OVC,0.00,WeatherDisplay:10.37,2013-05-24 06:46:00,
2013-05-24 02:51:00,39.0,34.3,30.27,NNW,345,5.0,7.0,83,0.00,CLR,OVC,0.00,WeatherDisplay:10.37,2013-05-24 06:51:00,
2013-05-24 02:56:00,38.9,34.2,30.27,NNW,344,3.0,6.0,83,0.00,CLR,OVC,0.00,WeatherDisplay:10.37,2013-05-24 06:56:00,
2013-05-24 03:01:00,38.8,34.4,30.27,North,349,5.0,6.0,84,0.00,CLR,OVC,0.00,WeatherDisplay:10.37,2013-05-24 07:01:00,
2013-05-24 03:06:00,38.7,34.3,30.27,North,351,2.0,4.0,84,0.00,CLR,OVC,0.00,WeatherDisplay:10.37,2013-05-24 07:06:00,
2013-05-24 03:11:00,38.6,34.2,30.27,North,1,2.0,5.0,84,0.00,CLR,OVC,0.00,WeatherDisplay:10.37,2013-05-24 07:11:00,
2013-05-24 03:16:00,38.6,34.1,30.27,NNE,12,2.0,6.0,84,0.00,CLR,OVC,0.00,WeatherDisplay:10.37,2013-05-24 07:16:00,
2013-05-24 03:21:00,38.5,34.1,30.27,North,5,3.0,5.0,84,0.00,CLR,OVC,0.00,WeatherDisplay:10.37,2013-05-24 07:21:00,
2013-05-24 03:26:00,38.4,34.0,30.28,North,0,3.0,6.0,84,0.00,CLR,OVC,0.00,WeatherDisplay:10.37,2013-05-24 07:26:00,
2013-05-24 03:31:00,38.4,34.0,30.28,North,7,3.0,6.0,84,0.00,CLR,OVC,0.00,WeatherDisplay:10.37,2013-05-24 07:31:00,
2013-05-24 03:36:00,38.3,33.9,30.28,North,10,3.0,6.0,84,0.00,CLR,OVC,0.00,WeatherDisplay:10.37,2013-05-24 07:36:00,
2013-05-24 03:41:00,38.3,33.9,30.28,North,4,3.0,6.0,84,0.00,CLR,OVC,0.00,WeatherDisplay:10.37,2013-05-24 07:41:00,
2013-05-24 03:46:00,38.2,33.8,30.28,North,355,3.0,4.0,84,0.00,CLR,OVC,0.00,WeatherDisplay:10.37,2013-05-24 07:46:00,
2013-05-24 03:51:00,38.1,34.0,30.28,North,351,2.0,4.0,85,0.00,CLR,OVC,0.00,WeatherDisplay:10.37,2013-05-24 07:51:00,
2013-05-24 03:56:00,38.1,34.0,30.28,North,351,2.0,3.0,85,0.00,CLR,OVC,0.00,WeatherDisplay:10.37,2013-05-24 07:56:00,
2013-05-24 04:01:00,37.9,33.8,30.28,North,351,2.0,3.0,85,0.00,CLR,OVC,0.00,WeatherDisplay:10.37,2013-05-24 08:01:00,
2013-05-24 04:06:00,37.9,33.8,30.29,North,7,3.0,5.0,85,0.00,CLR,OVC,0.00,WeatherDisplay:10.37,2013-05-24 08:06:00,
2013-05-24 04:11:00,37.9,33.8,30.29,North,6,2.0,5.0,85,0.00,CLR,OVC,0.00,WeatherDisplay:10.37,2013-05-24 08:11:00,
2013-05-24 04:16:00,37.9,33.8,30.29,North,3,2.0,6.0,85,0.00,CLR,OVC,0.00,WeatherDisplay:10.37,2013-05-24 08:16:00,
2013-05-24 04:21:00,37.8,33.7,30.29,North,5,2.0,4.0,85,0.00,CLR,OVC,0.00,WeatherDisplay:10.37,2013-05-24 08:21:00,
2013-05-24 04:26:00,37.8,33.7,30.30,North,356,3.0,4.0,85,0.00,CLR,OVC,0.00,WeatherDisplay:10.37,2013-05-24 08:26:00,
2013-05-24 04:31:00,37.8,33.7,30.30,NNW,345,2.0,3.0,85,0.00,CLR,OVC,0.00,WeatherDisplay:10.37,2013-05-24 08:31:00,
2013-05-24 04:36:00,37.7,33.6,30.30,NNW,343,3.0,4.0,85,0.00,CLR,OVC,0.00,WeatherDisplay:10.37,2013-05-24 08:36:00,
2013-05-24 04:41:00,37.6,33.5,30.30,NNW,343,2.0,4.0,85,0.00,CLR,OVC,0.00,WeatherDisplay:10.37,2013-05-24 08:41:00,
2013-05-24 04:46:00,37.5,33.7,30.30,NNW,343,2.0,3.0,86,0.00,CLR,OVC,0.00,WeatherDisplay:10.37,2013-05-24 08:46:00,
2013-05-24 04:51:00,37.4,33.6,30.31,NNW,343,2.0,3.0,86,0.00,CLR,OVC,0.00,WeatherDisplay:10.37,2013-05-24 08:51:00,
2013-05-24 04:56:00,37.4,33.6,30.30,NNW,343,1.0,4.0,86,0.00,CLR,OVC,0.00,WeatherDisplay:10.37,2013-05-24 08:56:00,
2013-05-24 05:01:00,37.3,33.5,30.30,NNW,343,3.0,4.0,86,0.00,CLR,OVC,0.00,WeatherDisplay:10.37,2013-05-24 09:01:00,
2013-05-24 05:06:00,37.2,33.4,30.30,NNW,343,2.0,4.0,86,0.00,CLR,OVC,0.00,WeatherDisplay:10.37,2013-05-24 09:06:00,
2013-05-24 05:11:00,37.1,33.3,30.30,NNW,345,2.0,4.0,86,0.00,CLR,OVC,0.00,WeatherDisplay:10.37,2013-05-24 09:11:00,
2013-05-24 05:16:00,37.0,33.2,30.31,NNW,348,2.0,4.0,86,0.00,CLR,OVC,0.00,WeatherDisplay:10.37,2013-05-24 09:16:00,
2013-05-24 05:21:00,36.9,33.4,30.31,North,349,2.0,3.0,87,0.00,CLR,OVC,0.00,WeatherDisplay:10.37,2013-05-24 09:21:00,
2013-05-24 05:26:00,36.8,33.3,30.31,North,349,2.0,3.0,87,0.00,CLR,OVC,0.00,WeatherDisplay:10.37,2013-05-24 09:26:00,
2013-05-24 05:31:00,36.8,33.3,30.31,North,349,2.0,4.0,87,0.00,CLR,OVC,0.00,WeatherDisplay:10.37,2013-05-24 09:31:00,
2013-05-24 05:36:00,36.8,33.3,30.31,North,349,1.0,3.0,87,0.00,CLR,OVC,0.00,WeatherDisplay:10.37,2013-05-24 09:36:00,
2013-05-24 05:41:00,36.7,33.2,30.32,North,349,2.0,3.0,87,0.00,CLR,OVC,0.00,WeatherDisplay:10.37,2013-05-24 09:41:00,
2013-05-24 05:46:00,36.6,33.1,30.32,North,349,2.0,3.0,87,0.00,CLR,OVC,0.00,WeatherDisplay:10.37,2013-05-24 09:46:00,
2013-05-24 05:51:00,36.6,33.1,30.32,North,349,2.0,4.0,87,0.00,CLR,OVC,0.00,WeatherDisplay:10.37,2013-05-24 09:51:00,
2013-05-24 05:56:00,36.6,33.1,30.32,North,349,1.0,3.0,87,0.00,CLR,OVC,0.00,WeatherDisplay:10.37,2013-05-24 09:56:00,
2013-05-24 06:01:00,36.5,33.3,30.32,North,349,2.0,3.0,88,0.00,CLR,OVC,0.00,WeatherDisplay:10.37,2013-05-24 10:01:00,
2013-05-24 06:06:00,36.4,33.2,30.32,North,349,1.0,3.0,88,0.00,CLR,OVC,0.00,WeatherDisplay:10.37,2013-05-24 10:06:00,
2013-05-24 06:11:00,36.4,33.2,30.32,North,349,1.0,3.0,88,0.00,CLR,OVC,0.00,WeatherDisplay:10.37,2013-05-24 10:11:00,
2013-05-24 06:16:00,36.3,33.1,30.32,North,3,1.0,4.0,88,0.00,CLR,OVC,0.00,WeatherDisplay:10.37,2013-05-24 10:16:00,
2013-05-24 06:21:00,36.3,33.1,30.33,NNE,16,1.0,3.0,88,0.00,CLR,OVC,0.00,WeatherDisplay:10.37,2013-05-24 10:21:00,
2013-05-24 06:26:00,36.3,33.1,30.33,NNE,17,2.0,4.0,88,0.00,CLR,OVC,0.00,WeatherDisplay:10.37,2013-05-24 10:26:00,
2013-05-24 06:31:00,36.3,33.1,30.33,NNE,17,2.0,3.0,88,0.00,CLR,OVC,0.00,WeatherDisplay:10.37,2013-05-24 10:31:00,
2013-05-24 06:36:00,36.2,33.3,30.34,NNE,17,2.0,3.0,89,0.00,CLR,OVC,0.00,WeatherDisplay:10.37,2013-05-24 10:36:00,
2013-05-24 06:41:00,36.2,33.3,30.34,NNE,17,2.0,4.0,89,0.00,CLR,OVC,0.00,WeatherDisplay:10.37,2013-05-24 10:41:00,
2013-05-24 06:46:00,36.3,33.4,30.34,NNE,17,2.0,3.0,89,0.00,CLR,OVC,0.00,WeatherDisplay:10.37,2013-05-24 10:46:00,
2013-05-24 06:51:00,36.5,33.5,30.34,NNE,17,3.0,5.0,89,0.00,CLR,OVC,0.00,WeatherDisplay:10.37,2013-05-24 10:51:00,
2013-05-24 06:56:00,36.6,33.4,30.35,NNE,17,3.0,5.0,88,0.00,CLR,OVC,0.00,WeatherDisplay:10.37,2013-05-24 10:56:00,
2013-05-24 07:01:00,36.9,33.6,30.35,NNE,13,3.0,6.0,88,0.00,CLR,OVC,0.00,WeatherDisplay:10.37,2013-05-24 11:01:00,
2013-05-24 07:06:00,37.0,33.8,30.35,North,6,2.0,6.0,88,0.00,CLR,OVC,0.00,WeatherDisplay:10.37,2013-05-24 11:06:00,
2013-05-24 07:11:00,37.2,33.9,30.35,North,350,3.0,7.0,88,0.00,CLR,OVC,0.00,WeatherDisplay:10.37,2013-05-24 11:11:00,
2013-05-24 07:16:00,37.4,33.8,30.35,NNW,347,2.0,6.0,87,0.00,CLR,OVC,0.00,WeatherDisplay:10.37,2013-05-24 11:16:00,
2013-05-24 07:21:00,37.6,34.1,30.36,North,0,5.0,7.0,87,0.00,CLR,OVC,0.00,WeatherDisplay:10.37,2013-05-24 11:21:00,
2013-05-24 07:26:00,37.8,34.3,30.35,North,1,6.0,7.0,87,0.00,CLR,OVC,0.00,WeatherDisplay:10.37,2013-05-24 11:26:00,
2013-05-24 07:31:00,38.0,34.5,30.36,North,356,5.0,8.0,87,0.00,CLR,OVC,0.00,WeatherDisplay:10.37,2013-05-24 11:31:00,
2013-05-24 07:36:00,38.3,34.5,30.36,North,2,6.0,8.0,86,0.00,CLR,OVC,0.00,WeatherDisplay:10.37,2013-05-24 11:36:00,
2013-05-24 07:41:00,38.5,34.4,30.36,North,8,3.0,8.0,85,0.00,CLR,OVC,0.00,WeatherDisplay:10.37,2013-05-24 11:41:00,
2013-05-24 07:46:00,38.8,35.0,30.36,North,3,3.0,7.0,86,0.00,CLR,OVC,0.00,WeatherDisplay:10.37,2013-05-24 11:46:00,
2013-05-24 07:51:00,39.0,34.6,30.36,North,1,5.0,8.0,84,0.00,CLR,OVC,0.00,WeatherDisplay:10.37,2013-05-24 11:51:00,
2013-05-24 07:56:00,39.3,35.2,30.36,North,9,2.0,5.0,85,0.00,CLR,OVC,0.00,WeatherDisplay:10.37,2013-05-24 11:56:00,
2013-05-24 08:01:00,39.6,35.2,30.36,North,8,3.0,5.0,84,0.00,CLR,OVC,0.00,WeatherDisplay:10.37,2013-05-24 12:01:00,
2013-05-24 08:06:00,39.9,35.5,30.36,NNE,15,2.0,6.0,84,0.00,CLR,OVC,0.00,WeatherDisplay:10.37,2013-05-24 12:06:00,
2013-05-24 08:11:00,40.2,35.8,30.36,NNE,17,3.0,6.0,84,0.00,CLR,OVC,0.00,WeatherDisplay:10.37,2013-05-24 12:11:00,
2013-05-24 08:16:00,40.5,35.7,30.37,North,4,3.0,5.0,83,0.00,CLR,OVC,0.00,WeatherDisplay:10.37,2013-05-24 12:16:00,
2013-05-24 08:21:00,41.0,35.9,30.37,NNE,25,3.0,8.0,82,0.00,CLR,OVC,0.00,WeatherDisplay:10.37,2013-05-24 12:21:00,
2013-05-24 08:26:00,41.2,35.8,30.37,NE,44,5.0,8.0,81,0.00,CLR,OVC,0.00,WeatherDisplay:10.37,2013-05-24 12:26:00,
2013-05-24 08:31:00,41.5,36.1,30.37,NE,48,5.0,7.0,81,0.00,CLR,OVC,0.00,WeatherDisplay:10.37,2013-05-24 12:31:00,
2013-05-24 08:36:00,41.5,35.8,30.37,NE,55,5.0,6.0,80,0.00,CLR,OVC,0.00,WeatherDisplay:10.37,2013-05-24 12:36:00,
2013-05-24 08:41:00,41.8,36.1,30.37,NE,56,7.0,9.0,80,0.00,CLR,OVC,0.00,WeatherDisplay:10.37,2013-05-24 12:41:00,
2013-05-24 08:46:00,41.9,36.2,30.38,NE,51,5.0,8.0,80,0.00,CLR,OVC,0.00,WeatherDisplay:10.37,2013-05-24 12:46:00,
2013-05-24 08:51:00,42.2,36.5,30.38,NE,42,3.0,7.0,80,0.00,CLR,OVC,0.00,WeatherDisplay:10.37,2013-05-24 12:51:00,
2013-05-24 08:56:00,42.3,36.0,30.38,NNE,19,5.0,7.0,78,0.00,CLR,OVC,0.00,WeatherDisplay:10.37,2013-05-24 12:56:00,
2013-05-24 09:01:00,42.3,36.0,30.38,NNE,13,5.0,7.0,78,0.00,CLR,OVC,0.00,WeatherDisplay:10.37,2013-05-24 13:01:00,
2013-05-24 09:06:00,42.7,36.3,30.38,NNE,27,3.0,5.0,78,0.00,CLR,OVC,0.00,WeatherDisplay:10.37,2013-05-24 13:06:00,
2013-05-24 09:11:00,43.1,37.0,30.38,NE,39,2.0,5.0,79,0.00,CLR,OVC,0.00,WeatherDisplay:10.37,2013-05-24 13:11:00,
2013-05-24 09:16:00,43.5,37.4,30.38,NE,36,5.0,7.0,79,0.00,CLR,OVC,0.00,WeatherDisplay:10.37,2013-05-24 13:16:00,
2013-05-24 09:21:00,43.7,37.9,30.39,NNE,30,3.0,8.0,80,0.00,CLR,OVC,0.00,WeatherDisplay:10.37,2013-05-24 13:21:00,
2013-05-24 09:26:00,43.7,36.6,30.39,North,10,5.0,7.0,76,0.00,CLR,OVC,0.00,WeatherDisplay:10.37,2013-05-24 13:26:00,
2013-05-24 09:31:00,43.9,37.1,30.39,North,356,3.0,6.0,77,0.00,CLR,OVC,0.00,WeatherDisplay:10.37,2013-05-24 13:31:00,
2013-05-24 09:36:00,43.9,36.5,30.39,NNE,14,6.0,8.0,75,0.00,CLR,OVC,0.00,WeatherDisplay:10.37,2013-05-24 13:36:00,
2013-05-24 09:41:00,44.5,37.7,30.39,NNE,30,5.0,8.0,77,0.00,CLR,OVC,0.00,WeatherDisplay:10.37,2013-05-24 13:41:00,
2013-05-24 09:46:00,45.1,38.6,30.39,North,2,5.0,8.0,78,0.00,CLR,OVC,0.00,WeatherDisplay:10.37,2013-05-24 13:46:00,
2013-05-24 09:51:00,45.0,37.2,30.39,NNW,339,6.0,8.0,74,0.00,CLR,OVC,0.00,WeatherDisplay:10.37,2013-05-24 13:51:00,
2013-05-24 09:56:00,44.9,37.1,30.39,North,351,6.0,12.0,74,0.00,CLR,OVC,0.00,WeatherDisplay:10.37,2013-05-24 13:56:00,
2013-05-24 10:01:00,44.9,36.7,30.39,North,356,7.0,10.0,73,0.00,CLR,OVC,0.00,WeatherDisplay:10.37,2013-05-24 14:01:00,
2013-05-24 10:06:00,45.2,36.7,30.40,North,355,7.0,12.0,72,0.00,CLR,OVC,0.00,WeatherDisplay:10.37,2013-05-24 14:06:00,
2013-05-24 10:11:00,45.1,36.6,30.39,North,2,10.0,12.0,72,0.00,CLR,OVC,0.00,WeatherDisplay:10.37,2013-05-24 14:11:00,
2013-05-24 10:16:00,45.3,35.7,30.40,North,355,7.0,12.0,69,0.00,CLR,OVC,0.00,WeatherDisplay:10.37,2013-05-24 14:16:00,
2013-05-24 10:21:00,45.3,35.4,30.40,North,352,9.0,13.0,68,0.00,CLR,OVC,0.00,WeatherDisplay:10.37,2013-05-24 14:21:00,
2013-05-24 10:26:00,45.3,35.7,30.40,North,354,9.0,12.0,69,0.00,CLR,OVC,0.00,WeatherDisplay:10.37,2013-05-24 14:26:00,
2013-05-24 10:31:00,45.1,35.6,30.40,North,357,8.0,12.0,69,0.00,CLR,OVC,0.00,WeatherDisplay:10.37,2013-05-24 14:31:00,
2013-05-24 10:36:00,45.4,35.8,30.40,NNE,13,6.0,9.0,69,0.00,CLR,OVC,0.00,WeatherDisplay:10.37,2013-05-24 14:36:00,
2013-05-24 10:41:00,45.9,36.3,30.40,NNE,17,7.0,12.0,69,0.00,CLR,OVC,0.00,WeatherDisplay:10.37,2013-05-24 14:41:00,
2013-05-24 10:46:00,46.0,36.0,30.40,North,9,9.0,12.0,68,0.00,CLR,OVC,0.00,WeatherDisplay:10.37,2013-05-24 14:46:00,
2013-05-24 10:51:00,46.1,35.4,30.40,North,359,7.0,12.0,66,0.00,CLR,OVC,0.00,WeatherDisplay:10.37,2013-05-24 14:51:00,
2013-05-24 10:56:00,46.2,36.2,30.40,North,355,9.0,12.0,68,0.00,CLR,OVC,0.00,WeatherDisplay:10.37,2013-05-24 14:56:00,
2013-05-24 11:01:00,46.2,35.5,30.40,NNW,345,6.0,8.0,66,0.00,FEW,OVC,0.00,WeatherDisplay:10.37,2013-05-24 15:01:00,
2013-05-24 11:06:00,46.2,35.5,30.40,North,358,5.0,12.0,66,0.00,FEW,OVC,0.00,WeatherDisplay:10.37,2013-05-24 15:06:00,
2013-05-24 11:11:00,46.5,36.5,30.40,NNE,24,2.0,5.0,68,0.00,FEW,OVC,0.00,WeatherDisplay:10.37,2013-05-24 15:11:00,
2013-05-24 11:16:00,47.3,38.4,30.40,NNE,14,8.0,10.0,71,0.00,FEW,OVC,0.00,WeatherDisplay:10.37,2013-05-24 15:16:00,
2013-05-24 11:21:00,47.3,37.3,30.40,NNE,17,1.0,6.0,68,0.00,FEW,OVC,0.00,WeatherDisplay:10.37,2013-05-24 15:21:00,
2013-05-24 11:26:00,47.9,38.6,30.40,NNE,24,7.0,10.0,70,0.00,FEW,OVC,0.00,WeatherDisplay:10.37,2013-05-24 15:26:00,
2013-05-24 11:31:00,47.8,37.7,30.40,NE,44,6.0,11.0,68,0.00,FEW,OVC,0.00,WeatherDisplay:10.37,2013-05-24 15:31:00,
2013-05-24 11:36:00,48.1,38.0,30.40,NE,35,5.0,10.0,68,0.00,FEW,OVC,0.00,WeatherDisplay:10.37,2013-05-24 15:36:00,
2013-05-24 11:41:00,48.3,39.0,30.41,NW,320,3.0,9.0,70,0.00,FEW,OVC,0.00,WeatherDisplay:10.37,2013-05-24 15:41:00,
2013-05-24 11:46:00,48.8,38.7,30.40,NW,315,2.0,6.0,68,0.00,FEW,OVC,0.00,WeatherDisplay:10.37,2013-05-24 15:46:00,
2013-05-24 11:51:00,48.9,38.4,30.40,NW,314,6.0,8.0,67,0.00,FEW,OVC,0.00,WeatherDisplay:10.37,2013-05-24 15:51:00,
2013-05-24 11:56:00,48.9,38.0,30.41,NW,316,3.0,12.0,66,0.00,FEW,OVC,0.00,WeatherDisplay:10.37,2013-05-24 15:56:00,
2013-05-24 12:01:00,48.9,38.4,30.41,NW,320,7.0,12.0,67,0.00,FEW,OVC,0.00,WeatherDisplay:10.37,2013-05-24 16:01:00,
2013-05-24 12:06:00,49.1,37.8,30.40,WNW,301,3.0,7.0,65,0.00,FEW,OVC,0.00,WeatherDisplay:10.37,2013-05-24 16:06:00,
2013-05-24 12:11:00,49.8,38.9,30.40,NW,312,7.0,9.0,66,0.00,FEW,OVC,0.00,WeatherDisplay:10.37,2013-05-24 16:11:00,
2013-05-24 12:16:00,49.5,38.3,30.40,NNW,331,3.0,10.0,65,0.00,FEW,OVC,0.00,WeatherDisplay:10.37,2013-05-24 16:16:00,
2013-05-24 12:21:00,49.8,39.3,30.40,NW,316,0.0,4.0,67,0.00,FEW,OVC,0.00,WeatherDisplay:10.37,2013-05-24 16:21:00,
2013-05-24 12:26:00,50.3,39.4,30.41,WNW,283,5.0,9.0,66,0.00,FEW,OVC,0.00,WeatherDisplay:10.37,2013-05-24 16:26:00,
2013-05-24 12:31:00,49.9,38.2,30.41,NW,307,7.0,10.0,64,0.00,FEW,OVC,0.00,WeatherDisplay:10.37,2013-05-24 16:31:00,
2013-05-24 12:36:00,50.0,40.6,30.41,NW,317,5.0,6.0,70,0.00,FEW,OVC,0.00,WeatherDisplay:10.37,2013-05-24 16:36:00,
2013-05-24 12:41:00,50.7,39.8,30.41,NW,308,7.0,12.0,66,0.00,FEW,OVC,0.00,WeatherDisplay:10.37,2013-05-24 16:41:00,
2013-05-24 12:46:00,50.8,39.0,30.41,NW,315,6.0,10.0,64,0.00,FEW,OVC,0.00,WeatherDisplay:10.37,2013-05-24 16:46:00,
2013-05-24 12:51:00,50.6,37.7,30.40,NNW,348,3.0,9.0,61,0.00,FEW,OVC,0.00,WeatherDisplay:10.37,2013-05-24 16:51:00,
2013-05-24 12:56:00,51.2,39.4,30.40,NNW,337,1.0,6.0,64,0.00,FEW,OVC,0.00,WeatherDisplay:10.37,2013-05-24 16:56:00,
2013-05-24 13:01:00,51.4,39.6,30.40,NW,304,6.0,10.0,64,0.00,FEW,OVC,0.00,WeatherDisplay:10.37,2013-05-24 17:01:00,
2013-05-24 13:06:00,51.8,40.4,30.40,NW,321,8.0,10.0,65,0.00,FEW,OVC,0.00,WeatherDisplay:10.37,2013-05-24 17:06:00,
2013-05-24 13:11:00,52.1,41.4,30.40,NW,312,6.0,8.0,67,0.00,FEW,OVC,0.00,WeatherDisplay:10.37,2013-05-24 17:11:00,
2013-05-24 13:16:00,52.4,41.4,30.40,WNW,289,6.0,8.0,66,0.00,FEW,OVC,0.00,WeatherDisplay:10.37,2013-05-24 17:16:00,
2013-05-24 13:21:00,52.5,40.7,30.40,NW,308,9.0,13.0,64,0.00,FEW,OVC,0.00,WeatherDisplay:10.37,2013-05-24 17:21:00,
2013-05-24 13:26:00,52.3,38.8,30.40,NW,308,8.0,13.0,60,0.00,FEW,OVC,0.00,WeatherDisplay:10.37,2013-05-24 17:26:00,
2013-05-24 13:31:00,52.3,39.7,30.40,NW,305,2.0,9.0,62,0.00,FEW,OVC,0.00,WeatherDisplay:10.37,2013-05-24 17:31:00,
2013-05-24 13:36:00,53.0,39.0,30.40,NW,307,5.0,9.0,59,0.00,FEW,OVC,0.00,WeatherDisplay:10.37,2013-05-24 17:36:00,
2013-05-24 13:41:00,53.5,40.4,30.40,NW,323,6.0,12.0,61,0.00,FEW,OVC,0.00,WeatherDisplay:10.37,2013-05-24 17:41:00,
2013-05-24 13:46:00,53.6,39.6,30.39,NNW,331,6.0,8.0,59,0.00,FEW,OVC,0.00,WeatherDisplay:10.37,2013-05-24 17:46:00,
2013-05-24 13:51:00,53.6,40.1,30.39,NW,310,5.0,10.0,60,0.00,FEW,OVC,0.00,WeatherDisplay:10.37,2013-05-24 17:51:00,
2013-05-24 13:56:00,53.9,39.0,30.39,WNW,283,2.0,7.0,57,0.00,FEW,OVC,0.00,WeatherDisplay:10.37,2013-05-24 17:56:00,
2013-05-24 14:01:00,54.3,42.0,30.39,WNW,293,7.0,10.0,63,0.00,FEW,OVC,0.00,WeatherDisplay:10.37,2013-05-24 18:01:00,
2013-05-24 14:06:00,53.9,43.6,30.39,WNW,297,3.0,10.0,68,0.00,FEW,OVC,0.00,WeatherDisplay:10.37,2013-05-24 18:06:00,
2013-05-24 14:11:00,54.1,43.0,30.39,WNW,299,7.0,14.0,66,0.00,FEW,OVC,0.00,WeatherDisplay:10.37,2013-05-24 18:11:00,
2013-05-24 14:16:00,53.8,41.0,30.39,NW,316,7.0,12.0,62,0.00,FEW,OVC,0.00,WeatherDisplay:10.37,2013-05-24 18:16:00,
2013-05-24 14:21:00,53.5,41.6,30.39,NW,316,3.0,12.0,64,0.00,FEW,OVC,0.00,WeatherDisplay:10.37,2013-05-24 18:21:00,
2013-05-24 14:26:00,53.7,43.0,30.39,WNW,299,5.0,12.0,67,0.00,FEW,OVC,0.00,WeatherDisplay:10.37,2013-05-24 18:26:00,
2013-05-24 14:31:00,53.6,41.7,30.39,WNW,290,2.0,9.0,64,0.00,FEW,OVC,0.00,WeatherDisplay:10.37,2013-05-24 18:31:00,
2013-05-24 14:36:00,54.0,42.5,30.39,West,266,3.0,6.0,65,0.00,FEW,OVC,0.00,WeatherDisplay:10.37,2013-05-24 18:36:00,
2013-05-24 14:41:00,54.2,41.5,30.39,NW,305,6.0,10.0,62,0.00,FEW,OVC,0.00,WeatherDisplay:10.37,2013-05-24 18:41:00,
2013-05-24 14:46:00,54.2,42.7,30.39,NW,306,5.0,7.0,65,0.00,FEW,OVC,0.00,WeatherDisplay:10.37,2013-05-24 18:46:00,
2013-05-24 14:51:00,54.1,40.9,30.39,NW,306,6.0,10.0,61,0.00,FEW,OVC,0.00,WeatherDisplay:10.37,2013-05-24 18:51:00,
2013-05-24 14:56:00,54.3,42.4,30.38,NW,313,7.0,9.0,64,0.00,FEW,OVC,0.00,WeatherDisplay:10.37,2013-05-24 18:56:00,
2013-05-24 15:01:00,54.1,41.4,30.38,NNW,332,6.0,9.0,62,0.00,FEW,OVC,0.00,WeatherDisplay:10.37,2013-05-24 19:01:00,
2013-05-24 15:06:00,54.0,42.9,30.38,NNW,333,5.0,9.0,66,0.00,FEW,OVC,0.00,WeatherDisplay:10.37,2013-05-24 19:06:00,
2013-05-24 15:11:00,54.0,41.7,30.38,NNW,340,0.0,4.0,63,0.00,FEW,OVC,0.00,WeatherDisplay:10.37,2013-05-24 19:11:00,
2013-05-24 15:16:00,54.7,43.9,30.38,NNW,334,6.0,8.0,67,0.00,FEW,OVC,0.00,WeatherDisplay:10.37,2013-05-24 19:16:00,
2013-05-24 15:21:00,55.1,43.5,30.38,NW,313,7.0,10.0,65,0.00,FEW,OVC,0.00,WeatherDisplay:10.37,2013-05-24 19:21:00,
2013-05-24 15:26:00,55.2,42.8,30.38,NW,305,2.0,8.0,63,0.00,FEW,OVC,0.00,WeatherDisplay:10.37,2013-05-24 19:26:00,
2013-05-24 15:31:00,55.1,43.1,30.38,NW,313,3.0,8.0,64,0.00,FEW,OVC,0.00,WeatherDisplay:10.37,2013-05-24 19:31:00,
2013-05-24 15:36:00,55.0,41.4,30.38,NNW,338,2.0,6.0,60,0.00,FEW,OVC,0.00,WeatherDisplay:10.37,2013-05-24 19:36:00,
2013-05-24 15:41:00,55.0,41.4,30.38,NNE,20,3.0,5.0,60,0.00,FEW,OVC,0.00,WeatherDisplay:10.37,2013-05-24 19:41:00,
2013-05-24 15:46:00,55.2,42.4,30.37,NNE,23,2.0,5.0,62,0.00,FEW,OVC,0.00,WeatherDisplay:10.37,2013-05-24 19:46:00,
2013-05-24 15:51:00,55.7,43.7,30.37,WNW,282,2.0,7.0,64,0.00,FEW,OVC,0.00,WeatherDisplay:10.37,2013-05-24 19:51:00,
2013-05-24 15:56:00,56.3,43.9,30.37,West,266,5.0,8.0,63,0.00,FEW,OVC,0.00,WeatherDisplay:10.37,2013-05-24 19:56:00,
2013-05-24 16:01:00,56.7,43.8,30.37,West,269,2.0,5.0,62,0.00,FEW,OVC,0.00,WeatherDisplay:10.37,2013-05-24 20:01:00,
2013-05-24 16:06:00,57.1,45.8,30.37,WNW,282,3.0,4.0,66,0.00,FEW,OVC,0.00,WeatherDisplay:10.37,2013-05-24 20:06:00,
2013-05-24 16:11:00,56.9,43.6,30.37,WNW,291,6.0,12.0,61,0.00,FEW,OVC,0.00,WeatherDisplay:10.37,2013-05-24 20:11:00,
2013-05-24 16:16:00,56.9,44.0,30.37,West,273,2.0,4.0,62,0.00,FEW,OVC,0.00,WeatherDisplay:10.37,2013-05-24 20:16:00,
2013-05-24 16:21:00,57.2,43.0,30.37,WSW,254,1.0,3.0,59,0.00,FEW,OVC,0.00,WeatherDisplay:10.37,2013-05-24 20:21:00,
2013-05-24 16:26:00,57.3,43.5,30.36,West,278,1.0,5.0,60,0.00,FEW,OVC,0.00,WeatherDisplay:10.37,2013-05-24 20:26:00,
2013-05-24 16:31:00,57.1,43.3,30.36,WSW,253,3.0,7.0,60,0.00,FEW,OVC,0.00,WeatherDisplay:10.37,2013-05-24 20:31:00,
2013-05-24 16:36:00,56.9,43.2,30.36,SW,228,3.0,7.0,60,0.00,FEW,OVC,0.00,WeatherDisplay:10.37,2013-05-24 20:36:00,
2013-05-24 16:41:00,57.0,43.2,30.36,SW,228,5.0,7.0,60,0.00,FEW,OVC,0.00,WeatherDisplay:10.37,2013-05-24 20:41:00,
2013-05-24 16:46:00,57.2,43.4,30.36,SW,233,1.0,6.0,60,0.00,FEW,OVC,0.00,WeatherDisplay:10.37,2013-05-24 20:46:00,
2013-05-24 16:51:00,57.6,43.8,30.36,SW,233,3.0,8.0,60,0.00,FEW,OVC,0.00,WeatherDisplay:10.37,2013-05-24 20:51:00,
2013-05-24 16:56:00,57.6,43.4,30.36,West,265,2.0,6.0,59,0.00,FEW,OVC,0.00,WeatherDisplay:10.37,2013-05-24 20:56:00,
2013-05-24 17:01:00,57.5,42.8,30.36,West,262,3.0,9.0,58,0.00,FEW,OVC,0.00,WeatherDisplay:10.37,2013-05-24 21:01:00,
2013-05-24 17:06:00,57.4,44.0,30.35,West,273,2.0,5.0,61,0.00,FEW,OVC,0.00,WeatherDisplay:10.37,2013-05-24 21:06:00,
2013-05-24 17:11:00,57.2,43.9,30.35,West,277,2.0,6.0,61,0.00,FEW,OVC,0.00,WeatherDisplay:10.37,2013-05-24 21:11:00,
2013-05-24 17:16:00,57.3,44.0,30.35,West,273,3.0,8.0,61,0.00,FEW,OVC,0.00,WeatherDisplay:10.37,2013-05-24 21:16:00,
2013-05-24 17:21:00,57.2,43.4,30.35,WSW,254,3.0,8.0,60,0.00,FEW,OVC,0.00,WeatherDisplay:10.37,2013-05-24 21:21:00,
2013-05-24 17:26:00,56.9,44.4,30.35,West,266,5.0,9.0,63,0.00,FEW,OVC,0.00,WeatherDisplay:10.37,2013-05-24 21:26:00,
2013-05-24 17:31:00,56.3,43.0,30.35,WNW,293,3.0,12.0,61,0.00,FEW,OVC,0.00,WeatherDisplay:10.37,2013-05-24 21:31:00,
2013-05-24 17:36:00,56.6,43.7,30.35,WNW,288,5.0,8.0,62,0.00,FEW,OVC,0.00,WeatherDisplay:10.37,2013-05-24 21:36:00,
2013-05-24 17:41:00,56.7,44.2,30.35,WNW,283,5.0,8.0,63,0.00,FEW,OVC,0.00,WeatherDisplay:10.37,2013-05-24 21:41:00,
2013-05-24 17:46:00,57.0,44.6,30.35,West,279,2.0,7.0,63,0.00,FEW,OVC,0.00,WeatherDisplay:10.37,2013-05-24 21:46:00,
2013-05-24 17:51:00,56.8,43.9,30.35,West,267,5.0,12.0,62,0.00,FEW,OVC,0.00,WeatherDisplay:10.37,2013-05-24 21:51:00,
2013-05-24 17:56:00,56.6,43.3,30.35,West,262,5.0,8.0,61,0.00,FEW,OVC,0.00,WeatherDisplay:10.37,2013-05-24 21:56:00,
2013-05-24 18:01:00,56.4,43.1,30.34,West,275,3.0,8.0,61,0.00,FEW,OVC,0.00,WeatherDisplay:10.37,2013-05-24 22:01:00,
2013-05-24 18:06:00,56.3,42.6,30.34,West,271,3.0,8.0,60,0.00,FEW,OVC,0.00,WeatherDisplay:10.37,2013-05-24 22:06:00,
2013-05-24 18:11:00,56.2,42.5,30.34,WSW,252,2.0,7.0,60,0.00,FEW,OVC,0.00,WeatherDisplay:10.37,2013-05-24 22:11:00,
2013-05-24 18:16:00,56.0,42.7,30.34,West,259,3.0,8.0,61,0.00,FEW,OVC,0.00,WeatherDisplay:10.37,2013-05-24 22:16:00,
2013-05-24 18:21:00,56.1,42.4,30.33,West,260,1.0,6.0,60,0.00,FEW,OVC,0.00,WeatherDisplay:10.37,2013-05-24 22:21:00,
2013-05-24 18:26:00,56.1,42.8,30.33,West,276,5.0,8.0,61,0.00,FEW,OVC,0.00,WeatherDisplay:10.37,2013-05-24 22:26:00,
2013-05-24 18:31:00,56.0,42.7,30.33,West,279,3.0,6.0,61,0.00,FEW,OVC,0.00,WeatherDisplay:10.37,2013-05-24 22:31:00,
2013-05-24 18:36:00,56.2,42.9,30.33,West,270,3.0,6.0,61,0.00,FEW,OVC,0.00,WeatherDisplay:10.37,2013-05-24 22:36:00,
2013-05-24 18:41:00,56.2,42.9,30.32,West,272,3.0,7.0,61,0.00,FEW,OVC,0.00,WeatherDisplay:10.37,2013-05-24 22:41:00,
2013-05-24 18:46:00,56.2,42.5,30.32,West,278,2.0,5.0,60,0.00,FEW,OVC,0.00,WeatherDisplay:10.37,2013-05-24 22:46:00,
2013-05-24 18:51:00,56.1,42.0,30.32,West,267,3.0,7.0,59,0.00,FEW,OVC,0.00,WeatherDisplay:10.37,2013-05-24 22:51:00,
2013-05-24 18:56:00,56.1,42.4,30.32,WSW,247,2.0,5.0,60,0.00,FEW,OVC,0.00,WeatherDisplay:10.37,2013-05-24 22:56:00,
2013-05-24 19:01:00,56.0,42.3,30.32,WSW,250,3.0,6.0,60,0.00,FEW,OVC,0.00,WeatherDisplay:10.37,2013-05-24 23:01:00,
2013-05-24 19:06:00,56.0,42.7,30.32,West,268,1.0,4.0,61,0.00,FEW,OVC,0.00,WeatherDisplay:10.37,2013-05-24 23:06:00,
2013-05-24 19:11:00,56.2,42.5,30.32,West,279,2.0,5.0,60,0.00,FEW,OVC,0.00,WeatherDisplay:10.37,2013-05-24 23:11:00,
2013-05-24 19:16:00,56.3,42.6,30.32,West,266,1.0,8.0,60,0.00,FEW,OVC,0.00,WeatherDisplay:10.37,2013-05-24 23:16:00,
2013-05-24 19:21:00,56.2,42.5,30.32,West,276,5.0,5.0,60,0.00,FEW,OVC,0.00,WeatherDisplay:10.37,2013-05-24 23:21:00,
2013-05-24 19:26:00,56.2,42.5,30.32,WNW,282,1.0,4.0,60,0.00,FEW,OVC,0.00,WeatherDisplay:10.37,2013-05-24 23:26:00,
2013-05-24 19:31:00,56.0,42.7,30.32,WNW,283,3.0,7.0,61,0.00,FEW,OVC,0.00,WeatherDisplay:10.37,2013-05-24 23:31:00,
2013-05-24 19:36:00,55.9,42.2,30.31,WNW,288,2.0,4.0,60,0.00,FEW,OVC,0.00,WeatherDisplay:10.37,2013-05-24 23:36:00,
2013-05-24 19:41:00,55.7,42.5,30.31,WNW,285,1.0,3.0,61,0.00,FEW,OVC,0.00,WeatherDisplay:10.37,2013-05-24 23:41:00,
2013-05-24 19:46:00,55.4,42.2,30.31,WNW,299,2.0,4.0,61,0.00,FEW,OVC,0.00,WeatherDisplay:10.37,2013-05-24 23:46:00,
2013-05-24 19:51:00,55.1,42.3,30.31,WNW,300,1.0,5.0,62,0.00,FEW,OVC,0.00,WeatherDisplay:10.37,2013-05-24 23:51:00,
2013-05-24 19:56:00,55.1,42.3,30.31,WNW,283,1.0,4.0,62,0.00,FEW,OVC,0.00,WeatherDisplay:10.37,2013-05-24 23:56:00,
2013-05-24 20:01:00,55.0,42.2,30.31,WSW,243,1.0,4.0,62,0.00,FEW,OVC,0.00,WeatherDisplay:10.37,2013-05-25 00:01:00,
2013-05-24 20:06:00,54.8,42.0,30.30,SW,235,0.0,6.0,62,0.00,FEW,OVC,0.00,WeatherDisplay:10.37,2013-05-25 00:06:00,
2013-05-24 20:11:00,54.9,42.1,30.30,SW,236,3.0,4.0,62,0.00,FEW,OVC,0.00,WeatherDisplay:10.37,2013-05-25 00:11:00,
2013-05-24 20:16:00,54.8,42.0,30.30,WSW,247,1.0,5.0,62,0.00,FEW,OVC,0.00,WeatherDisplay:10.37,2013-05-25 00:16:00,
2013-05-24 20:21:00,54.5,42.2,30.30,West,266,1.0,4.0,63,0.00,FEW,OVC,0.00,WeatherDisplay:10.37,2013-05-25 00:21:00,
2013-05-24 20:26:00,54.3,42.3,30.30,West,273,0.0,1.0,64,0.00,FEW,OVC,0.00,WeatherDisplay:10.37,2013-05-25 00:26:00,
2013-05-24 20:31:00,53.9,42.0,30.30,West,273,1.0,2.0,64,0.00,FEW,OVC,0.00,WeatherDisplay:10.37,2013-05-25 00:31:00,
2013-05-24 20:36:00,53.6,42.1,30.30,West,273,0.0,3.0,65,0.00,FEW,OVC,0.00,WeatherDisplay:10.37,2013-05-25 00:36:00,
2013-05-24 20:41:00,53.5,42.0,30.30,West,273,0.0,1.0,65,0.00,FEW,OVC,0.00,WeatherDisplay:10.37,2013-05-25 00:41:00,
2013-05-24 20:46:00,53.4,42.3,30.30,West,273,0.0,2.0,66,0.00,FEW,OVC,0.00,WeatherDisplay:10.37,2013-05-25 00:46:00,
2013-05-24 20:51:00,53.1,42.1,30.30,West,273,0.0,2.0,66,0.00,FEW,OVC,0.00,WeatherDisplay:10.37,2013-05-25 00:51:00,
2013-05-24 20:56:00,52.9,42.2,30.30,West,273,0.0,2.0,67,0.00,FEW,OVC,0.00,WeatherDisplay:10.37,2013-05-25 00:56:00,
2013-05-24 21:01:00,52.5,41.9,30.31,West,273,0.0,3.0,67,0.00,FEW,OVC,0.00,WeatherDisplay:10.37,2013-05-25 01:01:00,
2013-05-24 21:06:00,52.1,41.4,30.31,West,273,1.0,3.0,67,0.00,FEW,OVC,0.00,WeatherDisplay:10.37,2013-05-25 01:06:00,
2013-05-24 21:11:00,51.6,41.8,30.31,West,273,0.0,2.0,69,0.00,FEW,OVC,0.00,WeatherDisplay:10.37,2013-05-25 01:11:00,
2013-05-24 21:16:00,51.2,41.7,30.31,West,273,0.0,1.0,70,0.00,FEW,OVC,0.00,WeatherDisplay:10.37,2013-05-25 01:16:00,
2013-05-24 21:21:00,50.7,41.7,30.32,West,273,0.0,1.0,71,0.00,FEW,OVC,0.00,WeatherDisplay:10.37,2013-05-25 01:21:00,
2013-05-24 21:26:00,50.3,41.3,30.32,West,273,0.0,2.0,71,0.00,FEW,OVC,0.00,WeatherDisplay:10.37,2013-05-25 01:26:00,
2013-05-24 21:31:00,49.9,41.6,30.32,West,273,0.0,1.0,73,0.00,FEW,OVC,0.00,WeatherDisplay:10.37,2013-05-25 01:31:00,
2013-05-24 21:36:00,49.5,41.2,30.33,West,273,1.0,3.0,73,0.00,FEW,OVC,0.00,WeatherDisplay:10.37,2013-05-25 01:36:00,
2013-05-24 21:41:00,49.2,41.3,30.33,West,273,0.0,2.0,74,0.00,FEW,OVC,0.00,WeatherDisplay:10.37,2013-05-25 01:41:00,
2013-05-24 21:46:00,48.8,40.8,30.33,West,273,0.0,2.0,74,0.00,FEW,OVC,0.00,WeatherDisplay:10.37,2013-05-25 01:46:00,
2013-05-24 21:51:00,48.5,40.6,30.33,West,273,1.0,2.0,74,0.00,FEW,OVC,0.00,WeatherDisplay:10.37,2013-05-25 01:51:00,
2013-05-24 22:01:00,48.1,39.1,30.34,West,278,0.0,2.0,71,0.00,FEW,OVC,0.00,WeatherDisplay:10.37,2013-05-25 02:01:00,
2013-05-24 22:06:00,47.9,38.9,30.34,West,280,0.0,3.0,71,0.00,FEW,OVC,0.00,WeatherDisplay:10.37,2013-05-25 02:06:00,
2013-05-24 22:11:00,47.7,38.8,30.34,West,280,0.0,2.0,71,0.00,FEW,OVC,0.00,WeatherDisplay:10.37,2013-05-25 02:11:00,
2013-05-24 22:16:00,47.5,38.6,30.34,West,265,0.0,4.0,71,0.00,FEW,OVC,0.00,WeatherDisplay:10.37,2013-05-25 02:16:00,
2013-05-24 22:21:00,47.4,38.5,30.33,WSW,257,0.0,2.0,71,0.00,FEW,OVC,0.00,WeatherDisplay:10.37,2013-05-25 02:21:00,
2013-05-24 22:26:00,47.2,39.0,30.34,WSW,257,0.0,2.0,73,0.00,FEW,OVC,0.00,WeatherDisplay:10.37,2013-05-25 02:26:00,
2013-05-24 22:31:00,46.9,38.7,30.34,WSW,257,0.0,1.0,73,0.00,FEW,OVC,0.00,WeatherDisplay:10.37,2013-05-25 02:31:00,
2013-05-24 22:36:00,46.6,38.8,30.34,WSW,257,0.0,1.0,74,0.00,FEW,OVC,0.00,WeatherDisplay:10.37,2013-05-25 02:36:00,
2013-05-24 22:41:00,46.3,38.8,30.34,WSW,257,0.0,1.0,75,0.00,FEW,OVC,0.00,WeatherDisplay:10.37,2013-05-25 02:41:00,
2013-05-24 22:46:00,46.1,38.6,30.35,WSW,257,0.0,1.0,75,0.00,FEW,OVC,0.00,WeatherDisplay:10.37,2013-05-25 02:46:00,
2013-05-24 22:51:00,45.8,38.3,30.35,WSW,257,0.0,1.0,75,0.00,FEW,OVC,0.00,WeatherDisplay:10.37,2013-05-25 02:51:00,
2013-05-24 22:56:00,45.6,38.5,30.35,WSW,257,0.0,2.0,76,0.00,FEW,OVC,0.00,WeatherDisplay:10.37,2013-05-25 02:56:00,
2013-05-24 23:01:00,45.5,38.4,30.35,WSW,257,0.0,2.0,76,0.00,FEW,OVC,0.00,WeatherDisplay:10.37,2013-05-25 03:01:00,
2013-05-24 23:06:00,45.4,38.3,30.35,WSW,257,0.0,1.0,76,0.00,FEW,OVC,0.00,WeatherDisplay:10.37,2013-05-25 03:06:00,
2013-05-24 23:11:00,45.2,38.4,30.35,WSW,257,0.0,0.0,77,0.00,FEW,OVC,0.00,WeatherDisplay:10.37,2013-05-25 03:11:00,
2013-05-24 23:16:00,45.0,38.2,30.36,WSW,257,0.0,1.0,77,0.00,FEW,OVC,0.00,WeatherDisplay:10.37,2013-05-25 03:16:00,
2013-05-24 23:21:00,44.8,38.4,30.36,WSW,257,0.0,1.0,78,0.00,FEW,OVC,0.00,WeatherDisplay:10.37,2013-05-25 03:21:00,
2013-05-24 23:26:00,44.6,38.8,30.36,West,263,0.0,1.0,80,0.00,FEW,OVC,0.00,WeatherDisplay:10.37,2013-05-25 03:26:00,
2013-05-24 23:31:00,44.5,38.7,30.36,WNW,285,0.0,1.0,80,0.00,FEW,OVC,0.00,WeatherDisplay:10.37,2013-05-25 03:31:00,
2013-05-24 23:36:00,44.4,38.3,30.36,WNW,285,0.0,2.0,79,0.00,FEW,OVC,0.00,WeatherDisplay:10.37,2013-05-25 03:36:00,
2013-05-24 23:41:00,44.3,38.8,30.37,WNW,285,0.0,1.0,81,0.00,FEW,OVC,0.00,WeatherDisplay:10.37,2013-05-25 03:41:00,
2013-05-24 23:46:00,44.1,38.6,30.37,WNW,285,0.0,1.0,81,0.00,FEW,OVC,0.00,WeatherDisplay:10.37,2013-05-25 03:46:00,
2013-05-24 23:51:00,44.0,38.5,30.37,WNW,285,0.0,2.0,81,0.00,FEW,OVC,0.00,WeatherDisplay:10.37,2013-05-25 03:51:00,
2013-05-24 23:56:00,44.0,38.9,30.37,WNW,285,0.0,2.0,82,0.00,FEW,OVC,0.00,WeatherDisplay:10.37,2013-05-25 03:56:00,